Time;durP1;ratioP1;P1;durP2;ratioP2;P2;SDS_P1;SDS_P2;PMS_P1;PMS_P2;Temp;Humidity;BMP_temperature;BMP_pressure;BME280_temperature;BME280_humidity;BME280_pressure;Samples;Min_cycle;Max_cycle;Signal;HPM_P1;HPM_P2
2020/05/28 00:05:01;;;;;;;4;2.2;;;;;;;14.22;57.41699;970.2444;;;;
2020/05/28 00:06:41;;;;;;;3.8;2.4;;;;;;;14.19;57.12109;970.2034;;;;
2020/05/28 00:09:05;;;;;;;3.2;2;;;;;;;14.11;58.05078;970.1672;;;;
2020/05/28 00:11:30;;;;;;;5;2.1;;;;;;;14.09;57.09863;970.1866;;;;
2020/05/28 00:13:53;;;;;;;5.4;2.1;;;;;;;14.07;57.70996;970.1713;;;;
2020/05/28 00:18:43;;;;;;;3.5;2;;;;;;;13.96;57.68359;970.1539;;;;
2020/05/28 00:21:09;;;;;;;3.9;2.2;;;;;;;14;56.99316;970.133;;;;
2020/05/28 00:23:34;;;;;;;2.6;1.9;;;;;;;14.01;58.79297;970.1118;;;;
2020/05/28 00:26:04;;;;;;;5.2;2.3;;;;;;;13.93;59.29102;970.1295;;;;
2020/05/28 00:28:29;;;;;;;3.4;2;;;;;;;13.76;59.37402;970.084;;;;
2020/05/28 00:30:54;;;;;;;4.2;2;;;;;;;13.77;59.39746;970.0513;;;;
2020/05/28 00:33:19;;;;;;;3.4;2;;;;;;;13.79;59.11133;970.0195;;;;
2020/05/28 00:35:44;;;;;;;3.7;1.7;;;;;;;13.84;59.46582;969.9487;;;;
2020/05/28 00:38:09;;;;;;;2.9;1.8;;;;;;;13.84;60.08105;969.8694;;;;
2020/05/28 00:40:38;;;;;;;3.1;1.8;;;;;;;13.81;60.04102;969.8875;;;;
2020/05/28 00:43:03;;;;;;;3.1;1.8;;;;;;;13.84;59.62695;969.8242;;;;
2020/05/28 00:45:28;;;;;;;3.4;1.9;;;;;;;13.91;60.37891;969.7784;;;;
2020/05/28 00:47:53;;;;;;;3;1.9;;;;;;;13.93;60.0918;969.796;;;;
2020/05/28 00:50:18;;;;;;;3.2;1.8;;;;;;;13.87;60.45508;969.7176;;;;
2020/05/28 00:52:43;;;;;;;3.3;1.8;;;;;;;13.85;60.02246;969.7522;;;;
2020/05/28 00:55:15;;;;;;;3.6;1.8;;;;;;;13.77;61.125;969.7292;;;;
2020/05/28 00:57:40;;;;;;;3.6;2.3;;;;;;;13.83;61.22461;969.7011;;;;
2020/05/28 01:00:05;;;;;;;3.7;2;;;;;;;13.78;61.09082;969.6721;;;;
2020/05/28 01:02:33;;;;;;;3.3;2.1;;;;;;;13.74;60.88867;969.6655;;;;
2020/05/28 01:04:58;;;;;;;4.3;2.5;;;;;;;13.8;61.89355;969.6816;;;;
2020/05/28 01:07:23;;;;;;;4.8;2.4;;;;;;;13.85;61.86621;969.6096;;;;
2020/05/28 01:09:48;;;;;;;3.9;2.4;;;;;;;13.87;61.83594;969.5734;;;;
2020/05/28 01:12:15;;;;;;;3.2;2.2;;;;;;;13.91;61.31738;969.5667;;;;
2020/05/28 01:17:04;;;;;;;2.8;2;;;;;;;13.92;61.30859;969.5581;;;;
2020/05/28 01:21:55;;;;;;;4.7;2.3;;;;;;;13.86;62.08789;969.5011;;;;
2020/05/28 01:24:20;;;;;;;3.6;2.4;;;;;;;13.9;62.03516;969.3986;;;;
2020/05/28 01:26:45;;;;;;;3.8;2.3;;;;;;;13.93;61.88965;969.4435;;;;
2020/05/28 01:29:10;;;;;;;5.1;2.2;;;;;;;13.91;61.0752;969.4334;;;;
2020/05/28 01:31:42;;;;;;;2.8;2.3;;;;;;;13.95;61.60254;969.4252;;;;
2020/05/28 01:34:03;;;;;;;4.9;2.3;;;;;;;13.98;62.12793;969.448;;;;
2020/05/28 01:36:30;;;;;;;4;2.6;;;;;;;13.92;62.46777;969.4172;;;;
2020/05/28 01:39:19;;;;;;;3.6;2.5;;;;;;;13.85;62.70117;969.4092;;;;
2020/05/28 01:42:07;;;;;;;3;2.5;;;;;;;13.92;61.76074;969.4098;;;;
2020/05/28 01:43:54;;;;;;;3;2.3;;;;;;;13.98;61.93066;969.4078;;;;
2020/05/28 01:46:16;;;;;;;3.7;2;;;;;;;14.01;61.73828;969.4782;;;;
2020/05/28 01:48:34;;;;;;;2.9;2.1;;;;;;;13.98;61.17676;969.4324;;;;
2020/05/28 01:51:00;;;;;;;3.5;2.1;;;;;;;14.04;62.19531;969.3567;;;;
2020/05/28 01:55:50;;;;;;;3.4;2.1;;;;;;;13.91;60.86523;969.3995;;;;
2020/05/28 01:58:16;;;;;;;3.4;2.3;;;;;;;13.82;61.72363;969.3692;;;;
2020/05/28 02:00:42;;;;;;;3.1;2;;;;;;;13.84;61.7959;969.3653;;;;
2020/05/28 02:03:08;;;;;;;3.3;2;;;;;;;13.71;62.42676;969.3494;;;;
2020/05/28 02:05:33;;;;;;;4.9;2.2;;;;;;;13.63;62.42578;969.2999;;;;
2020/05/28 02:07:59;;;;;;;3.9;2.3;;;;;;;13.56;63.43652;969.264;;;;
2020/05/28 02:10:24;;;;;;;3.6;2.7;;;;;;;13.45;64.6377;969.2278;;;;
2020/05/28 02:12:50;;;;;;;3.6;2.4;;;;;;;13.42;65.51367;969.259;;;;
2020/05/28 02:15:15;;;;;;;4.7;2.9;;;;;;;13.43;65.46777;969.2649;;;;
2020/05/28 02:17:41;;;;;;;4;2.9;;;;;;;13.33;64.66406;969.2332;;;;
2020/05/28 02:20:07;;;;;;;4.4;2.8;;;;;;;13.33;64.99121;969.275;;;;
2020/05/28 02:22:32;;;;;;;4.4;2.3;;;;;;;13.55;61.88086;969.2791;;;;
2020/05/28 02:24:57;;;;;;;3.8;2.1;;;;;;;13.48;59.83301;969.2883;;;;
2020/05/28 02:27:24;;;;;;;3.4;2;;;;;;;13.45;61.86816;969.2262;;;;
2020/05/28 02:29:49;;;;;;;4;2.2;;;;;;;13.5;61.78223;969.1783;;;;
2020/05/28 02:32:19;;;;;;;3.2;2.1;;;;;;;13.55;61.70703;969.1432;;;;
2020/05/28 02:34:46;;;;;;;3.6;2.1;;;;;;;13.53;61.99414;969.1741;;;;
2020/05/28 02:37:12;;;;;;;3.7;2.2;;;;;;;13.49;62.31348;969.1635;;;;
2020/05/28 02:39:40;;;;;;;3.1;2.2;;;;;;;13.52;62.24805;969.1155;;;;
2020/05/28 02:42:05;;;;;;;2.6;1.9;;;;;;;13.48;61.54785;969.1189;;;;
2020/05/28 02:44:30;;;;;;;3.5;2.1;;;;;;;13.63;60.76953;969.0648;;;;
2020/05/28 02:49:30;;;;;;;4;2;;;;;;;13.68;59.57129;969.0072;;;;
2020/05/28 02:51:40;;;;;;;4.5;2.2;;;;;;;13.65;59.98438;968.95;;;;
2020/05/28 02:54:05;;;;;;;3;1.6;;;;;;;13.66;59.6377;968.9369;;;;
2020/05/28 02:56:30;;;;;;;3.9;2;;;;;;;13.66;58.31641;968.9689;;;;
2020/05/28 02:58:55;;;;;;;3.5;2;;;;;;;13.77;57.73926;968.9821;;;;
2020/05/28 03:01:26;;;;;;;3.1;2;;;;;;;13.7;57.87988;968.995;;;;
2020/05/28 03:03:49;;;;;;;2.5;1.7;;;;;;;13.89;58.1377;968.9764;;;;
2020/05/28 03:06:15;;;;;;;4.5;1.8;;;;;;;13.86;58.60938;968.9963;;;;
2020/05/28 03:08:40;;;;;;;3.4;2;;;;;;;13.97;58.64844;968.9766;;;;
2020/05/28 03:11:05;;;;;;;2.6;2.1;;;;;;;13.99;58.96387;968.9481;;;;
2020/05/28 03:13:30;;;;;;;5.5;2.1;;;;;;;13.91;59.59082;968.9926;;;;
2020/05/28 03:16:04;;;;;;;3.3;2.1;;;;;;;13.77;60.52148;969.0222;;;;
2020/05/28 03:18:20;;;;;;;3.2;2.4;;;;;;;13.66;60.92383;969.0344;;;;
2020/05/28 03:25:35;;;;;;;3.2;2.3;;;;;;;13.38;61.94922;969.1386;;;;
2020/05/28 03:28:00;;;;;;;3.7;2.4;;;;;;;13.38;62.05371;969.1894;;;;
2020/05/28 03:30:30;;;;;;;6;2.5;;;;;;;13.35;61.43652;969.1372;;;;
2020/05/28 03:33:00;;;;;;;3;2;;;;;;;13.39;60.19043;969.16;;;;
2020/05/28 03:35:23;;;;;;;3;2.1;;;;;;;13.34;60.42871;969.1796;;;;
2020/05/28 03:37:49;;;;;;;3.5;2.3;;;;;;;13.36;59.79297;969.2051;;;;
2020/05/28 03:40:14;;;;;;;3.6;2.2;;;;;;;13.43;59.48926;969.1596;;;;
2020/05/28 03:42:40;;;;;;;3.1;2;;;;;;;13.38;59.86621;969.1223;;;;
2020/05/28 03:45:06;;;;;;;4.2;2.4;;;;;;;13.21;60.21191;969.1014;;;;
2020/05/28 03:47:31;;;;;;;3.2;2.3;;;;;;;13.3;60.63086;969.1481;;;;
2020/05/28 03:49:56;;;;;;;4.4;2.3;;;;;;;13.06;60.77051;969.1174;;;;
2020/05/28 03:52:23;;;;;;;3.5;2.2;;;;;;;13.07;61.375;969.0868;;;;
2020/05/28 03:54:49;;;;;;;3.5;2.3;;;;;;;13.08;61.17871;969.014;;;;
2020/05/28 03:57:14;;;;;;;2.5;2;;;;;;;13.24;61.61914;969.0039;;;;
2020/05/28 03:59:39;;;;;;;4.1;2.6;;;;;;;13.2;61.05566;968.985;;;;
2020/05/28 04:02:27;;;;;;;4.9;2.7;;;;;;;13.17;60.75098;968.9222;;;;
2020/05/28 04:04:52;;;;;;;5.1;2.9;;;;;;;13.16;61.2373;968.9048;;;;
2020/05/28 04:07:17;;;;;;;3.1;2.4;;;;;;;13.09;60.87988;968.8956;;;;
2020/05/28 04:09:42;;;;;;;4.8;2.7;;;;;;;13.21;61.07031;968.9394;;;;
2020/05/28 04:12:08;;;;;;;4.1;2.5;;;;;;;13.27;61.11328;968.9067;;;;
2020/05/28 04:14:34;;;;;;;4.2;2.6;;;;;;;13.21;60.91895;968.9025;;;;
2020/05/28 04:17:02;;;;;;;5.2;2.7;;;;;;;13.28;61.44922;968.9142;;;;
2020/05/28 04:19:25;;;;;;;5.2;2.8;;;;;;;13.25;61.05176;968.9005;;;;
2020/05/28 04:21:51;;;;;;;5.1;2.9;;;;;;;13.24;60.61035;968.8999;;;;
2020/05/28 04:24:16;;;;;;;6.4;3.2;;;;;;;13.33;60.91113;968.8729;;;;
2020/05/28 04:26:41;;;;;;;6.7;3.2;;;;;;;13.32;61.43262;968.8785;;;;
2020/05/28 04:29:06;;;;;;;4.5;2.7;;;;;;;13.41;59.83398;968.9199;;;;
2020/05/28 04:31:31;;;;;;;4.8;2.7;;;;;;;13.51;60.64746;968.918;;;;
2020/05/28 04:34:00;;;;;;;5;2.7;;;;;;;13.53;59.52734;968.9038;;;;
2020/05/28 04:36:25;;;;;;;5.2;2.8;;;;;;;13.52;59.44434;968.8796;;;;
2020/05/28 04:38:50;;;;;;;4.9;2.7;;;;;;;13.43;59.98828;968.8828;;;;
2020/05/28 04:41:15;;;;;;;4.3;2.6;;;;;;;13.42;59.8252;968.8889;;;;
2020/05/28 04:43:40;;;;;;;3.5;2.6;;;;;;;13.45;59.85254;968.8748;;;;
2020/05/28 04:48:43;;;;;;;4.9;2.6;;;;;;;13.49;59.64844;968.9297;;;;
2020/05/28 04:50:58;;;;;;;3.5;2.5;;;;;;;13.44;59.99023;968.9436;;;;
2020/05/28 04:53:23;;;;;;;4.9;2.7;;;;;;;13.5;60.06738;968.9612;;;;
2020/05/28 04:55:49;;;;;;;3.4;2.5;;;;;;;13.74;59.79883;968.9094;;;;
2020/05/28 04:58:14;;;;;;;3.9;2.9;;;;;;;13.65;60.12305;968.9352;;;;
2020/05/28 05:00:39;;;;;;;5;2.7;;;;;;;13.61;60.33691;968.9385;;;;
2020/05/28 05:03:04;;;;;;;5;2.8;;;;;;;13.64;60.43457;968.9188;;;;
2020/05/28 05:05:30;;;;;;;5.7;2.5;;;;;;;13.67;61.3418;968.8781;;;;
2020/05/28 05:07:55;;;;;;;3.5;2.4;;;;;;;13.72;60.12109;968.9579;;;;
2020/05/28 05:10:20;;;;;;;5.5;2.6;;;;;;;13.61;60.65039;968.9402;;;;
2020/05/28 05:12:45;;;;;;;5;2.9;;;;;;;13.62;60.58203;968.9796;;;;
2020/05/28 05:15:10;;;;;;;5.8;2.5;;;;;;;13.69;60.28027;968.9319;;;;
2020/05/28 05:17:35;;;;;;;4.4;2.6;;;;;;;13.71;60.12012;968.9365;;;;
2020/05/28 05:20:52;;;;;;;5;2.7;;;;;;;13.69;60.22168;968.9123;;;;
2020/05/28 05:22:25;;;;;;;4.5;2.8;;;;;;;13.39;60.80566;968.9972;;;;
2020/05/28 05:24:51;;;;;;;3.6;2.7;;;;;;;13.43;61.06641;968.9819;;;;
2020/05/28 05:27:16;;;;;;;4.4;2.8;;;;;;;13.61;61.42676;969.0123;;;;
2020/05/28 05:29:45;;;;;;;5.1;2.6;;;;;;;13.83;60.26367;968.9645;;;;
2020/05/28 05:32:28;;;;;;;5.9;2.8;;;;;;;13.78;59.95508;968.901;;;;
2020/05/28 05:37:10;;;;;;;4.7;2.7;;;;;;;13.78;60.67383;968.8478;;;;
2020/05/28 05:44:30;;;;;;;4.3;2.9;;;;;;;13.75;60.9248;968.8325;;;;
2020/05/28 05:47:18;;;;;;;5.8;3.1;;;;;;;13.95;61.56738;968.8867;;;;
2020/05/28 05:49:21;;;;;;;5.4;2.7;;;;;;;13.99;60.20508;968.8506;;;;
2020/05/28 05:56:33;;;;;;;3.6;2.7;;;;;;;14.16;59.68262;968.764;;;;
2020/05/28 05:59:06;;;;;;;6.5;3;;;;;;;14.04;60.52539;968.8304;;;;
2020/05/28 06:06:07;;;;;;;5.3;3.3;;;;;;;14.27;60.01074;968.7176;;;;
2020/05/28 06:09:26;;;;;;;8.1;3;;;;;;;14.3;59.88672;968.6976;;;;
2020/05/28 06:15:55;;;;;;;5.6;2.6;;;;;;;14.19;59.66309;968.6826;;;;
2020/05/28 06:23:00;;;;;;;6.6;2.9;;;;;;;14.46;59.0625;968.6674;;;;
2020/05/28 06:25:27;;;;;;;6.4;3.1;;;;;;;14.46;59.35156;968.6197;;;;
2020/05/28 06:35:11;;;;;;;5.5;2.8;;;;;;;14.82;58.09863;968.6642;;;;
2020/05/28 06:37:38;;;;;;;6.8;3;;;;;;;14.73;57.90137;968.6676;;;;
2020/05/28 06:40:02;;;;;;;6;3;;;;;;;14.66;58.7168;968.6853;;;;
2020/05/28 06:42:23;;;;;;;7.8;3.2;;;;;;;14.86;58.52344;968.7764;;;;
2020/05/28 06:45:07;;;;;;;6.7;3;;;;;;;14.76;58.50977;968.7542;;;;
2020/05/28 06:47:16;;;;;;;7.2;2.9;;;;;;;14.89;58.40039;968.8254;;;;
2020/05/28 06:49:49;;;;;;;4;3.1;;;;;;;15.01;57.88086;968.866;;;;
2020/05/28 06:52:13;;;;;;;7.7;3.1;;;;;;;15.13;58.17676;968.9313;;;;
2020/05/28 06:54:30;;;;;;;5.2;2.8;;;;;;;15.24;58.13184;968.9397;;;;
2020/05/28 06:59:18;;;;;;;6.2;2.9;;;;;;;15.27;57.39258;968.9656;;;;
2020/05/28 07:13:48;;;;;;;5.9;2.4;;;;;;;15.57;58.2334;968.8535;;;;
2020/05/28 07:16:15;;;;;;;7.1;2.9;;;;;;;15.58;57.85059;968.8627;;;;
2020/05/28 07:24:30;;;;;;;5.1;2.7;;;;;;;15.87;57.40039;968.8325;;;;
2020/05/28 07:28:32;;;;;;;5.5;2.6;;;;;;;16.28;57.03516;968.8008;;;;
2020/05/28 07:30:54;;;;;;;4.6;2.8;;;;;;;16.52;56.0166;968.8455;;;;
2020/05/28 07:35:57;;;;;;;6.2;2.9;;;;;;;16.67;55.55566;968.9309;;;;
2020/05/28 07:40:27;;;;;;;9.2;3.2;;;;;;;16.62;56.16895;968.9164;;;;
2020/05/28 07:42:54;;;;;;;6.6;2.8;;;;;;;16.54;55.20215;968.9486;;;;
2020/05/28 07:45:29;;;;;;;5.9;2.8;;;;;;;16.28;55.75195;968.9233;;;;
2020/05/28 07:48:01;;;;;;;7.6;3;;;;;;;16.43;55.95703;968.9285;;;;
2020/05/28 07:52:36;;;;;;;6.3;3.4;;;;;;;16.52;55.64258;969.0051;;;;
2020/05/28 08:00:03;;;;;;;4.9;3.1;;;;;;;16.96;54.88086;969.0298;;;;
2020/05/28 08:02:18;;;;;;;6.5;3.3;;;;;;;16.73;55.12012;969.032;;;;
2020/05/28 08:04:39;;;;;;;5.2;3.3;;;;;;;16.97;55.29102;968.9853;;;;
2020/05/28 08:11:51;;;;;;;5.4;3.4;;;;;;;16.96;55.76758;969.1184;;;;
2020/05/28 08:17:17;;;;;;;5.3;3.8;;;;;;;16.73;56.52051;969.1942;;;;
2020/05/28 08:19:17;;;;;;;5.3;4;;;;;;;16.7;56.69141;969.1042;;;;
2020/05/28 08:24:15;;;;;;;6.8;3.9;;;;;;;16.24;57.75195;969.1086;;;;
2020/05/28 08:26:27;;;;;;;5.9;3.8;;;;;;;16.26;58.32617;969.1953;;;;
2020/05/28 08:28:55;;;;;;;5.8;3.8;;;;;;;16.25;58.42969;969.1961;;;;
2020/05/28 08:36:05;;;;;;;6.6;4.5;;;;;;;15.97;61.49219;969.2473;;;;
2020/05/28 08:38:51;;;;;;;6.4;4.3;;;;;;;15.69;62.52441;969.2953;;;;
2020/05/28 08:43:22;;;;;;;4.7;3.8;;;;;;;15.51;64.08203;969.3842;;;;
2020/05/28 08:49:34;;;;;;;5.6;4;;;;;;;15.34;65.00977;969.4291;;;;
2020/05/28 08:56:52;;;;;;;7.9;4.4;;;;;;;15;67.96094;969.407;;;;
2020/05/28 08:59:20;;;;;;;5.9;4.7;;;;;;;15.04;68.70996;969.4207;;;;
2020/05/28 09:04:07;;;;;;;5.2;4.3;;;;;;;14.91;69.01465;969.4948;;;;
2020/05/28 09:08:58;;;;;;;7.2;5.4;;;;;;;14.5;72.83008;969.2823;;;;
2020/05/28 09:13:01;;;;;;;7.3;5.3;;;;;;;14.37;72.29688;969.3898;;;;
2020/05/28 09:13:47;;;;;;;7.4;5.3;;;;;;;14.23;75.29102;969.3301;;;;
2020/05/28 09:16:45;;;;;;;6.7;5.3;;;;;;;14.27;73.94043;969.3353;;;;
2020/05/28 09:21:05;;;;;;;7.9;6;;;;;;;14.31;76.4541;969.318;;;;
2020/05/28 09:23:28;;;;;;;7.5;6;;;;;;;14.05;76.88574;969.1945;;;;
2020/05/28 09:25:55;;;;;;;7;6.1;;;;;;;14.22;76.95996;969.1874;;;;
2020/05/28 09:33:39;;;;;;;8.1;6.2;;;;;;;14.47;78.18945;969.2612;;;;
2020/05/28 09:42:50;;;;;;;9.4;6.5;;;;;;;15.05;76.07422;969.2445;;;;
2020/05/28 09:50:04;;;;;;;8.5;6.4;;;;;;;15.37;75.2793;969.248;;;;
2020/05/28 09:52:35;;;;;;;9;6.5;;;;;;;15.32;75.30469;969.2703;;;;
2020/05/28 09:55:36;;;;;;;8.6;6.8;;;;;;;15.65;74.60449;969.2739;;;;
2020/05/28 09:59:53;;;;;;;7.4;6.1;;;;;;;15.86;72.70605;969.2139;;;;
2020/05/28 10:02:11;;;;;;;7;6.3;;;;;;;16.02;69.24805;969.1807;;;;
2020/05/28 10:04:50;;;;;;;8.3;6.7;;;;;;;15.87;70.2627;969.2181;;;;
2020/05/28 10:11:50;;;;;;;8.2;6.6;;;;;;;15.96;68.3877;969.1766;;;;
2020/05/28 10:16:59;;;;;;;9.4;6.8;;;;;;;15.89;69.58789;969.1995;;;;
2020/05/28 10:25:44;;;;;;;7.7;6.8;;;;;;;16.09;66.60254;969.2646;;;;
2020/05/28 10:33:48;;;;;;;7.6;6.5;;;;;;;16.39;65.97168;969.1417;;;;
2020/05/28 10:36:13;;;;;;;7.3;6.4;;;;;;;16.62;64.44336;969.16;;;;
2020/05/28 10:38:25;;;;;;;6.9;5.9;;;;;;;16.89;62.22852;969.1813;;;;
2020/05/28 10:40:59;;;;;;;7.6;6;;;;;;;17.19;61.82715;969.0934;;;;
2020/05/28 10:45:58;;;;;;;7;6.1;;;;;;;17.63;61.42188;969.139;;;;
2020/05/28 10:49:37;;;;;;;8.1;6.9;;;;;;;16.83;63.20117;969.0678;;;;
2020/05/28 10:53:05;;;;;;;7.3;6.6;;;;;;;17.28;61.9209;969.062;;;;
2020/05/28 10:58:57;;;;;;;7.4;6.6;;;;;;;17.16;63.15332;969.0264;;;;
2020/05/28 11:01:15;;;;;;;14.8;7.1;;;;;;;17;62.17383;969.082;;;;
2020/05/28 11:03:47;;;;;;;8.9;6.2;;;;;;;16.95;62.80859;969.046;;;;
2020/05/28 11:09:34;;;;;;;7.4;6;;;;;;;16.4;60.98047;969.0638;;;;
2020/05/28 11:10:57;;;;;;;8.2;6.1;;;;;;;16.55;62.89258;969.082;;;;
2020/05/28 11:13:19;;;;;;;9.8;7.5;;;;;;;16.42;66.08105;969.1149;;;;
2020/05/28 11:25:26;;;;;;;10.9;8;;;;;;;15.98;69.27734;969.0438;;;;
2020/05/28 11:27:47;;;;;;;9.2;8.2;;;;;;;16;70.18945;969.0249;;;;
2020/05/28 11:30:13;;;;;;;9.9;8.2;;;;;;;15.97;69.92871;968.9324;;;;
2020/05/28 11:32:52;;;;;;;8.5;7.4;;;;;;;16.01;68.54785;968.9373;;;;
2020/05/28 11:34:58;;;;;;;10.2;7.9;;;;;;;16.19;67.33984;968.9322;;;;
2020/05/28 11:37:34;;;;;;;8.8;7.9;;;;;;;16.44;66.36523;968.8552;;;;
2020/05/28 11:40:33;;;;;;;8.9;8;;;;;;;16.77;64.88574;968.8425;;;;
2020/05/28 11:42:28;;;;;;;9.5;7.6;;;;;;;16.92;63.97266;968.829;;;;
2020/05/28 11:44:42;;;;;;;11.7;8.4;;;;;;;17.02;64.11523;968.8093;;;;
2020/05/28 11:47:38;;;;;;;9.4;7.5;;;;;;;16.94;63.61328;968.8039;;;;
2020/05/28 11:49:35;;;;;;;9.4;7.3;;;;;;;16.91;63.49316;968.83;;;;
2020/05/28 11:54:15;;;;;;;8.6;7;;;;;;;17.17;62.50195;968.7755;;;;
2020/05/28 11:56:41;;;;;;;8.5;7.4;;;;;;;17.48;62.58008;968.6697;;;;
2020/05/28 11:59:07;;;;;;;9.9;8.6;;;;;;;17.28;62.75098;968.6262;;;;
2020/05/28 12:01:34;;;;;;;13.9;8.7;;;;;;;17.79;61.36133;968.6323;;;;
2020/05/28 12:11:19;;;;;;;7.7;7;;;;;;;17.64;61.11914;968.5627;;;;
2020/05/28 12:13:49;;;;;;;10.2;7.1;;;;;;;17.97;59.80469;968.5474;;;;
2020/05/28 12:16:28;;;;;;;9.4;6.9;;;;;;;18.08;59.79883;968.5405;;;;
2020/05/28 12:21:09;;;;;;;8.5;6.8;;;;;;;17.16;61.38965;968.7051;;;;
2020/05/28 12:28:14;;;;;;;7.1;5.7;;;;;;;15.98;66.80762;968.6228;;;;
2020/05/28 12:35:39;;;;;;;7.5;5.3;;;;;;;16.46;66.13477;968.4423;;;;
2020/05/28 12:43:26;;;;;;;6.8;5.1;;;;;;;17.36;63.73242;968.3714;;;;
2020/05/28 12:45:15;;;;;;;5.3;4.7;;;;;;;17.64;63.50586;968.3771;;;;
2020/05/28 12:50:12;;;;;;;5;4.5;;;;;;;18.18;61.59082;968.3594;;;;
2020/05/28 12:55:09;;;;;;;6.1;5;;;;;;;18.06;61.39844;968.335;;;;
2020/05/28 12:57:19;;;;;;;5.8;4.9;;;;;;;18.34;61.62598;968.2907;;;;
2020/05/28 12:59:47;;;;;;;6;5.4;;;;;;;18.26;60.75879;968.212;;;;
2020/05/28 13:08:05;;;;;;;7.8;6.4;;;;;;;18.85;59.74902;968.23;;;;
2020/05/28 13:09:22;;;;;;;7;5.9;;;;;;;19.13;59.00098;968.1953;;;;
2020/05/28 13:11:55;;;;;;;6.9;6.2;;;;;;;19.22;57.72168;968.1282;;;;
2020/05/28 13:17:11;;;;;;;7;6.1;;;;;;;17.75;61.59082;968.0613;;;;
2020/05/28 13:19:06;;;;;;;6.8;6.1;;;;;;;17.84;61.67285;968.071;;;;
2020/05/28 13:21:36;;;;;;;6.1;5.5;;;;;;;18.5;58.26074;968.0319;;;;
2020/05/28 13:24:04;;;;;;;7.3;6.3;;;;;;;18.66;57.48535;967.9856;;;;
2020/05/28 13:26:30;;;;;;;7.7;6;;;;;;;18.81;55.78027;967.9935;;;;
2020/05/28 13:36:10;;;;;;;6.6;5.8;;;;;;;18.78;53.52539;967.8414;;;;
2020/05/28 13:53:06;;;;;;;5.8;4.6;;;;;;;19.08;49.95801;967.6092;;;;
2020/05/28 14:06:01;;;;;;;4.5;1.7;;;;;;;20.22;40.2041;967.445;;;;
2020/05/28 14:07:54;;;;;;;3.7;1.8;;;;;;;20.35;39.72266;967.4799;;;;
2020/05/28 14:14:56;;;;;;;4;1.9;;;;;;;20.52;40.37207;967.4664;;;;
2020/05/28 14:17:14;;;;;;;2.9;1.7;;;;;;;20.24;41.10059;967.4656;;;;
2020/05/28 14:27:03;;;;;;;3.8;1.5;;;;;;;19.95;37.56934;967.4483;;;;
2020/05/28 14:29:56;;;;;;;2.5;1.3;;;;;;;20.16;37.26855;967.2872;;;;
2020/05/28 14:36:38;;;;;;;3.5;1.3;;;;;;;20.85;36.46777;967.2617;;;;
2020/05/28 14:38:58;;;;;;;3.7;1.3;;;;;;;20.64;36.62695;967.3092;;;;
2020/05/28 14:46:24;;;;;;;2.6;1.6;;;;;;;19.52;36.79297;967.2626;;;;
2020/05/28 14:49:56;;;;;;;76.4;27.1;;;;;;;20.01;35.45703;967.245;;;;
2020/05/28 14:52:26;;;;;;;6.6;2.4;;;;;;;20.22;35.65137;967.2664;;;;
2020/05/28 14:59:44;;;;;;;2.6;1.4;;;;;;;20.48;34.55273;967.1552;;;;
2020/05/28 15:04:34;;;;;;;2.7;1.4;;;;;;;20.57;34.15918;967.1283;;;;
2020/05/28 15:06:45;;;;;;;2.4;1.4;;;;;;;20.67;33.26074;967.1888;;;;
2020/05/28 15:09:17;;;;;;;2.9;1.2;;;;;;;20.67;34.29785;967.1406;;;;
2020/05/28 15:16:29;;;;;;;3.8;1.5;;;;;;;21.18;34.30078;967.0764;;;;
2020/05/28 15:19:50;;;;;;;2;1;;;;;;;21.02;34.44238;967.164;;;;
2020/05/28 15:24:44;;;;;;;3.7;1.1;;;;;;;20.66;34.31934;967.2353;;;;
2020/05/28 15:28:58;;;;;;;4.6;1.5;;;;;;;19.67;35.23047;967.1582;;;;
2020/05/28 15:34:00;;;;;;;3.2;1.2;;;;;;;19.7;35.16211;967.1647;;;;
2020/05/28 15:43:12;;;;;;;2.8;1.2;;;;;;;19.77;35.01465;967.113;;;;
2020/05/28 15:45:37;;;;;;;4.7;1.4;;;;;;;19.86;34.72754;967.1002;;;;
2020/05/28 15:48:08;;;;;;;2;1.1;;;;;;;19.83;33.70313;967.1127;;;;
2020/05/28 15:55:26;;;;;;;2.8;1.4;;;;;;;19.33;35.9082;967.1426;;;;
2020/05/28 15:57:37;;;;;;;3.5;1.3;;;;;;;19.09;36.41602;967.1153;;;;
2020/05/28 16:00:08;;;;;;;3;1.7;;;;;;;18.96;36.61621;967.1236;;;;
2020/05/28 16:06:03;;;;;;;4.2;1.5;;;;;;;18.77;35.99121;967.0553;;;;
2020/05/28 16:07:38;;;;;;;4.1;1.4;;;;;;;18.84;36.1377;967.0667;;;;
2020/05/28 16:09:45;;;;;;;2.9;1.3;;;;;;;18.93;35.61719;967.1136;;;;
2020/05/28 16:12:14;;;;;;;4.6;1.2;;;;;;;18.94;35.48926;967.0502;;;;
2020/05/28 16:16:58;;;;;;;3.7;1.5;;;;;;;19.11;35.43164;967.0225;;;;
2020/05/28 16:19:28;;;;;;;2.9;1.2;;;;;;;19.19;34.53418;967.0513;;;;
2020/05/28 16:25:13;;;;;;;3.1;1.1;;;;;;;19.24;35.80664;967.0538;;;;
2020/05/28 16:26:40;;;;;;;3.9;1.2;;;;;;;19.06;35.66309;967.0798;;;;
2020/05/28 16:29:00;;;;;;;2.9;1.1;;;;;;;18.89;36.23535;967.1303;;;;
2020/05/28 16:36:24;;;;;;;2.1;1.2;;;;;;;18.91;35.9668;967.1263;;;;
2020/05/28 16:41:21;;;;;;;2.4;1.3;;;;;;;18.78;35.55762;967.0536;;;;
2020/05/28 16:43:53;;;;;;;2.5;1.1;;;;;;;18.74;35.50781;967.1727;;;;
2020/05/28 16:46:11;;;;;;;2.1;1.2;;;;;;;18.62;35.04102;967.1252;;;;
2020/05/28 16:51:00;;;;;;;2.4;1.1;;;;;;;18.21;35.96875;967.1613;;;;
2020/05/28 17:07:56;;;;;;;3.5;1;;;;;;;18.16;37.26465;967.1768;;;;
2020/05/28 17:10:11;;;;;;;2.2;1.2;;;;;;;18.16;36.80859;967.1927;;;;
2020/05/28 17:12:43;;;;;;;3.7;1.1;;;;;;;18.16;36.72656;967.2332;;;;
2020/05/28 17:15:58;;;;;;;3.3;0.9;;;;;;;18.08;36.78906;967.2106;;;;
2020/05/28 17:17:40;;;;;;;1.8;0.8;;;;;;;17.96;36.26465;967.2879;;;;
2020/05/28 17:20:02;;;;;;;4.2;0.9;;;;;;;17.86;35.6123;967.2819;;;;
2020/05/28 17:22:32;;;;;;;2.3;0.8;;;;;;;17.84;35.59961;967.2471;;;;
2020/05/28 17:27:14;;;;;;;3.2;1.1;;;;;;;17.84;35.35254;967.2818;;;;
2020/05/28 17:29:39;;;;;;;1.8;0.8;;;;;;;17.79;35.2207;967.3434;;;;
2020/05/28 17:32:10;;;;;;;2.4;1.1;;;;;;;17.77;36.16797;967.3583;;;;
2020/05/28 17:34:59;;;;;;;2.6;1.1;;;;;;;17.67;35.9248;967.3558;;;;
2020/05/28 17:39:27;;;;;;;1.5;0.8;;;;;;;17.61;36.30469;967.3391;;;;
2020/05/28 17:41:53;;;;;;;1.8;1.2;;;;;;;17.68;35.64453;967.2983;;;;
2020/05/28 17:45:09;;;;;;;2.3;1.2;;;;;;;17.7;36.09082;967.3006;;;;
2020/05/28 17:49:12;;;;;;;2.1;1.3;;;;;;;17.56;36.31348;967.3564;;;;
2020/05/28 17:51:28;;;;;;;4;1.1;;;;;;;17.48;36.62305;967.3468;;;;
2020/05/28 17:56:31;;;;;;;1.8;0.9;;;;;;;17.44;37.29688;967.3376;;;;
2020/05/28 17:58:45;;;;;;;2.9;1.1;;;;;;;17.42;37.68066;967.3201;;;;
2020/05/28 18:06:12;;;;;;;2.8;0.9;;;;;;;17.33;37.39355;967.3164;;;;
2020/05/28 18:08:32;;;;;;;2.1;0.9;;;;;;;17.18;37.8125;967.3025;;;;
2020/05/28 18:13:23;;;;;;;1.9;1;;;;;;;17.01;36.86328;967.3113;;;;
2020/05/28 18:15:55;;;;;;;2.6;0.9;;;;;;;16.98;37.64258;967.3184;;;;
2020/05/28 18:18:46;;;;;;;3;1.2;;;;;;;16.92;36.33008;967.3542;;;;
2020/05/28 18:20:35;;;;;;;1.8;1;;;;;;;16.77;36.02637;967.335;;;;
2020/05/28 18:22:58;;;;;;;2.4;1.3;;;;;;;16.95;36.00586;967.3067;;;;
2020/05/28 18:25:29;;;;;;;5.7;1.8;;;;;;;16.91;35.79199;967.3287;;;;
2020/05/28 18:27:59;;;;;;;2.3;1.1;;;;;;;16.96;35.76074;967.3652;;;;
2020/05/28 18:32:44;;;;;;;2.9;1;;;;;;;16.8;36.35547;967.36;;;;
2020/05/28 18:35:07;;;;;;;1.9;0.9;;;;;;;16.78;36.71582;967.3844;;;;
2020/05/28 18:37:36;;;;;;;3.8;1.1;;;;;;;16.73;36.4668;967.3757;;;;
2020/05/28 18:43:20;;;;;;;3;0.9;;;;;;;16.61;36.76074;967.4529;;;;
2020/05/28 18:44:46;;;;;;;1.9;1;;;;;;;16.62;36.7373;967.4867;;;;
2020/05/28 18:59:22;;;;;;;2.9;0.9;;;;;;;16.23;38.61719;967.5728;;;;
2020/05/28 19:11:33;;;;;;;3.7;1;;;;;;;16.1;38.5;967.848;;;;
2020/05/28 19:13:48;;;;;;;3.9;1;;;;;;;15.78;41.37207;967.8039;;;;
2020/05/28 19:18:44;;;;;;;3.9;1.1;;;;;;;15.34;47.05664;968.0352;;;;
2020/05/28 19:21:11;;;;;;;6;1.4;;;;;;;14.85;49.73535;968.0106;;;;
2020/05/28 19:24:16;;;;;;;4.4;1.2;;;;;;;14.73;51.19727;968.1252;;;;
2020/05/28 19:25:54;;;;;;;4.2;1.3;;;;;;;14.72;50.5459;968.2679;;;;
2020/05/28 19:28:54;;;;;;;4.6;1.3;;;;;;;14.53;50.5;968.2004;;;;
2020/05/28 19:33:44;;;;;;;4.4;1.2;;;;;;;14.3;50.06641;968.3664;;;;
2020/05/28 19:35:45;;;;;;;4.2;1.3;;;;;;;14.19;50.78516;968.4211;;;;
2020/05/28 19:42:50;;;;;;;3.5;1.5;;;;;;;13.86;51.9541;968.5711;;;;
2020/05/28 19:45:38;;;;;;;3.8;1.2;;;;;;;13.75;52.3916;968.6522;;;;
2020/05/28 19:47:35;;;;;;;5.4;1.3;;;;;;;13.62;53.02637;968.7264;;;;
2020/05/28 19:54:59;;;;;;;4.6;1.3;;;;;;;13.46;54.61719;968.7714;;;;
2020/05/28 19:57:20;;;;;;;3.2;1.1;;;;;;;13.39;53.93555;968.8047;;;;
2020/05/28 20:02:13;;;;;;;3.4;1.3;;;;;;;13.05;54.68066;968.8013;;;;
2020/05/28 20:04:48;;;;;;;4;1.3;;;;;;;13.2;54.00391;968.8074;;;;
2020/05/28 20:07:10;;;;;;;3;1.2;;;;;;;13.22;54.55176;968.8036;;;;
2020/05/28 20:09:27;;;;;;;4.5;1.8;;;;;;;13.24;53.80273;968.8362;;;;
2020/05/28 20:14:19;;;;;;;2.8;1;;;;;;;13.07;54.17285;968.8204;;;;
2020/05/28 20:21:44;;;;;;;3.1;1.2;;;;;;;13.18;52.8916;968.8339;;;;
2020/05/28 20:26:28;;;;;;;3.2;1.1;;;;;;;13.1;52.5918;968.8199;;;;
2020/05/28 20:29:04;;;;;;;4.8;1.3;;;;;;;12.94;53.11523;968.8484;;;;
2020/05/28 20:31:19;;;;;;;2.9;1;;;;;;;12.93;53.32422;968.8246;;;;
2020/05/28 20:38:35;;;;;;;2.1;0.9;;;;;;;12.97;53.29395;968.8173;;;;
2020/05/28 20:41:38;;;;;;;3;1;;;;;;;12.86;53.32617;968.8541;;;;
2020/05/28 20:48:10;;;;;;;3.3;1;;;;;;;12.71;53.29688;968.8409;;;;
2020/05/28 20:53:00;;;;;;;3.3;0.8;;;;;;;12.66;53.5791;968.8594;;;;
2020/05/28 20:55:25;;;;;;;2.5;1;;;;;;;12.65;53.79785;968.895;;;;
2020/05/28 20:57:50;;;;;;;4.6;1;;;;;;;12.6;53.94238;968.8898;;;;
2020/05/28 21:02:41;;;;;;;2.2;1;;;;;;;12.54;54.09668;968.871;;;;
2020/05/28 21:05:04;;;;;;;2.9;1.1;;;;;;;12.51;54.74023;968.8474;;;;
2020/05/28 21:07:33;;;;;;;2.9;1.1;;;;;;;12.66;53.67285;968.8628;;;;
2020/05/28 21:10:00;;;;;;;2;0.9;;;;;;;12.58;54.36719;968.8516;;;;
2020/05/28 21:12:19;;;;;;;2.5;1.1;;;;;;;12.57;54.90918;968.8334;;;;
2020/05/28 21:22:08;;;;;;;2.9;1.1;;;;;;;12.38;54.4707;968.8416;;;;
2020/05/28 21:24:26;;;;;;;1.9;1;;;;;;;12.47;54.56152;968.8223;;;;
2020/05/28 21:26:58;;;;;;;2.2;0.8;;;;;;;12.33;54.72949;968.787;;;;